sensor_id;sensor_type;location;lat;lon;timestamp;P1;durP1;ratioP1;P2;durP2;ratioP2
20138;SDS011;10230;51.502;10.800;2022-09-02T00:00:03;1.30;;;0.80;;
20138;SDS011;10230;51.502;10.800;2022-09-02T00:02:32;0.70;;;0.63;;
20138;SDS011;10230;51.502;10.800;2022-09-02T00:04:58;1.80;;;0.50;;
20138;SDS011;10230;51.502;10.800;2022-09-02T00:07:24;0.80;;;0.60;;
20138;SDS011;10230;51.502;10.800;2022-09-02T00:09:51;0.80;;;0.57;;
20138;SDS011;10230;51.502;10.800;2022-09-02T00:12:17;1.60;;;0.60;;
20138;SDS011;10230;51.502;10.800;2022-09-02T00:14:43;0.63;;;0.50;;
20138;SDS011;10230;51.502;10.800;2022-09-02T00:17:09;1.03;;;0.60;;
20138;SDS011;10230;51.502;10.800;2022-09-02T00:19:35;1.20;;;0.60;;
20138;SDS011;10230;51.502;10.800;2022-09-02T00:22:02;1.30;;;0.67;;
20138;SDS011;10230;51.502;10.800;2022-09-02T00:24:29;1.23;;;0.87;;
20138;SDS011;10230;51.502;10.800;2022-09-02T00:26:55;1.20;;;0.87;;
20138;SDS011;10230;51.502;10.800;2022-09-02T00:29:21;0.83;;;0.60;;
20138;SDS011;10230;51.502;10.800;2022-09-02T00:31:47;1.07;;;0.80;;
20138;SDS011;10230;51.502;10.800;2022-09-02T00:34:13;1.13;;;0.80;;
20138;SDS011;10230;51.502;10.800;2022-09-02T00:36:40;1.00;;;0.70;;
20138;SDS011;10230;51.502;10.800;2022-09-02T00:39:06;2.27;;;0.70;;
20138;SDS011;10230;51.502;10.800;2022-09-02T00:41:33;0.73;;;0.70;;
20138;SDS011;10230;51.502;10.800;2022-09-02T00:44:01;0.90;;;0.90;;
20138;SDS011;10230;51.502;10.800;2022-09-02T00:46:28;1.00;;;0.70;;
20138;SDS011;10230;51.502;10.800;2022-09-02T00:48:55;0.83;;;0.80;;
20138;SDS011;10230;51.502;10.800;2022-09-02T00:51:21;1.57;;;0.80;;
20138;SDS011;10230;51.502;10.800;2022-09-02T00:53:48;1.70;;;0.60;;
20138;SDS011;10230;51.502;10.800;2022-09-02T00:56:18;1.27;;;0.77;;
20138;SDS011;10230;51.502;10.800;2022-09-02T00:58:45;1.57;;;0.80;;
20138;SDS011;10230;51.502;10.800;2022-09-02T01:01:11;1.70;;;0.80;;
20138;SDS011;10230;51.502;10.800;2022-09-02T01:03:38;1.47;;;1.00;;
20138;SDS011;10230;51.502;10.800;2022-09-02T01:06:05;3.13;;;0.70;;
20138;SDS011;10230;51.502;10.800;2022-09-02T01:08:33;0.70;;;0.70;;
20138;SDS011;10230;51.502;10.800;2022-09-02T01:11:00;0.87;;;0.80;;
20138;SDS011;10230;51.502;10.800;2022-09-02T01:13:28;1.60;;;0.70;;
20138;SDS011;10230;51.502;10.800;2022-09-02T01:15:56;2.47;;;0.80;;
20138;SDS011;10230;51.502;10.800;2022-09-02T01:18:26;1.27;;;0.77;;
20138;SDS011;10230;51.502;10.800;2022-09-02T01:20:53;2.33;;;0.90;;
20138;SDS011;10230;51.502;10.800;2022-09-02T01:23:19;1.77;;;0.93;;
20138;SDS011;10230;51.502;10.800;2022-09-02T01:25:46;2.27;;;1.03;;
20138;SDS011;10230;51.502;10.800;2022-09-02T01:28:13;2.50;;;0.90;;
20138;SDS011;10230;51.502;10.800;2022-09-02T01:30:42;1.30;;;0.80;;
20138;SDS011;10230;51.502;10.800;2022-09-02T01:33:09;1.37;;;0.90;;
20138;SDS011;10230;51.502;10.800;2022-09-02T01:35:35;1.97;;;0.90;;
20138;SDS011;10230;51.502;10.800;2022-09-02T01:38:02;1.70;;;1.00;;
20138;SDS011;10230;51.502;10.800;2022-09-02T01:40:28;1.73;;;1.03;;
20138;SDS011;10230;51.502;10.800;2022-09-02T01:42:56;2.30;;;0.77;;
20138;SDS011;10230;51.502;10.800;2022-09-02T01:45:23;1.13;;;0.90;;
20138;SDS011;10230;51.502;10.800;2022-09-02T01:47:49;0.97;;;0.73;;
20138;SDS011;10230;51.502;10.800;2022-09-02T01:50:15;1.03;;;0.80;;
20138;SDS011;10230;51.502;10.800;2022-09-02T01:52:41;2.07;;;0.80;;
20138;SDS011;10230;51.502;10.800;2022-09-02T01:55:08;1.50;;;1.00;;
20138;SDS011;10230;51.502;10.800;2022-09-02T01:57:35;2.83;;;0.80;;
20138;SDS011;10230;51.502;10.800;2022-09-02T02:00:02;1.27;;;0.83;;
20138;SDS011;10230;51.502;10.800;2022-09-02T02:02:28;0.70;;;0.70;;
20138;SDS011;10230;51.502;10.800;2022-09-02T02:04:54;0.80;;;0.77;;
20138;SDS011;10230;51.502;10.800;2022-09-02T02:07:21;2.50;;;1.03;;
20138;SDS011;10230;51.502;10.800;2022-09-02T02:09:47;2.97;;;1.33;;
20138;SDS011;10230;51.502;10.800;2022-09-02T02:12:14;0.87;;;0.70;;
20138;SDS011;10230;51.502;10.800;2022-09-02T02:14:40;1.60;;;0.90;;
20138;SDS011;10230;51.502;10.800;2022-09-02T02:17:06;0.73;;;0.70;;
20138;SDS011;10230;51.502;10.800;2022-09-02T02:19:33;0.70;;;0.70;;
20138;SDS011;10230;51.502;10.800;2022-09-02T02:21:59;2.00;;;1.00;;
20138;SDS011;10230;51.502;10.800;2022-09-02T02:24:25;3.83;;;0.77;;
20138;SDS011;10230;51.502;10.800;2022-09-02T02:26:51;1.40;;;1.07;;
20138;SDS011;10230;51.502;10.800;2022-09-02T02:29:17;1.03;;;0.70;;
20138;SDS011;10230;51.502;10.800;2022-09-02T02:31:43;1.47;;;0.90;;
20138;SDS011;10230;51.502;10.800;2022-09-02T02:34:09;1.13;;;0.93;;
20138;SDS011;10230;51.502;10.800;2022-09-02T02:36:36;2.70;;;0.90;;
20138;SDS011;10230;51.502;10.800;2022-09-02T02:39:04;2.50;;;0.90;;
20138;SDS011;10230;51.502;10.800;2022-09-02T02:41:30;2.53;;;1.10;;
20138;SDS011;10230;51.502;10.800;2022-09-02T02:43:56;1.83;;;1.17;;
20138;SDS011;10230;51.502;10.800;2022-09-02T02:46:22;1.50;;;0.90;;
20138;SDS011;10230;51.502;10.800;2022-09-02T02:48:48;2.57;;;1.10;;
20138;SDS011;10230;51.502;10.800;2022-09-02T02:51:14;1.43;;;1.17;;
20138;SDS011;10230;51.502;10.800;2022-09-02T02:53:41;1.70;;;1.13;;
20138;SDS011;10230;51.502;10.800;2022-09-02T02:56:07;2.97;;;0.87;;
20138;SDS011;10230;51.502;10.800;2022-09-02T02:58:33;1.67;;;0.90;;
20138;SDS011;10230;51.502;10.800;2022-09-02T03:01:00;1.70;;;1.27;;
20138;SDS011;10230;51.502;10.800;2022-09-02T03:03:26;2.30;;;1.00;;
20138;SDS011;10230;51.502;10.800;2022-09-02T03:05:53;1.37;;;0.97;;
20138;SDS011;10230;51.502;10.800;2022-09-02T03:08:20;2.80;;;1.13;;
20138;SDS011;10230;51.502;10.800;2022-09-02T03:10:47;2.40;;;1.10;;
20138;SDS011;10230;51.502;10.800;2022-09-02T03:13:18;1.00;;;0.87;;
20138;SDS011;10230;51.502;10.800;2022-09-02T03:15:45;2.17;;;1.20;;
20138;SDS011;10230;51.502;10.800;2022-09-02T03:18:11;1.97;;;1.50;;
20138;SDS011;10230;51.502;10.800;2022-09-02T03:20:38;1.60;;;1.20;;
20138;SDS011;10230;51.502;10.800;2022-09-02T03:23:04;2.17;;;1.53;;
20138;SDS011;10230;51.502;10.800;2022-09-02T03:25:31;3.13;;;1.40;;
20138;SDS011;10230;51.502;10.800;2022-09-02T03:27:58;2.40;;;1.47;;
20138;SDS011;10230;51.502;10.800;2022-09-02T03:30:25;3.00;;;1.30;;
20138;SDS011;10230;51.502;10.800;2022-09-02T03:32:52;7.50;;;4.37;;
20138;SDS011;10230;51.502;10.800;2022-09-02T03:35:19;5.07;;;3.17;;
20138;SDS011;10230;51.502;10.800;2022-09-02T03:37:46;4.50;;;1.87;;
20138;SDS011;10230;51.502;10.800;2022-09-02T03:40:14;2.53;;;1.30;;
20138;SDS011;10230;51.502;10.800;2022-09-02T03:42:40;1.90;;;1.37;;
20138;SDS011;10230;51.502;10.800;2022-09-02T03:45:08;3.33;;;1.30;;
20138;SDS011;10230;51.502;10.800;2022-09-02T03:47:34;1.93;;;1.27;;
20138;SDS011;10230;51.502;10.800;2022-09-02T03:50:02;1.17;;;1.07;;
20138;SDS011;10230;51.502;10.800;2022-09-02T03:52:28;4.47;;;1.60;;
20138;SDS011;10230;51.502;10.800;2022-09-02T03:54:54;1.43;;;1.00;;
20138;SDS011;10230;51.502;10.800;2022-09-02T03:57:21;3.30;;;1.30;;
20138;SDS011;10230;51.502;10.800;2022-09-02T03:59:50;1.30;;;1.10;;
20138;SDS011;10230;51.502;10.800;2022-09-02T04:02:16;3.13;;;1.30;;
20138;SDS011;10230;51.502;10.800;2022-09-02T04:04:42;3.83;;;1.60;;
20138;SDS011;10230;51.502;10.800;2022-09-02T04:07:08;6.20;;;3.33;;
20138;SDS011;10230;51.502;10.800;2022-09-02T04:09:34;4.43;;;2.40;;
20138;SDS011;10230;51.502;10.800;2022-09-02T04:12:02;2.47;;;1.63;;
20138;SDS011;10230;51.502;10.800;2022-09-02T04:14:28;2.87;;;1.20;;
20138;SDS011;10230;51.502;10.800;2022-09-02T04:16:55;3.20;;;1.53;;
20138;SDS011;10230;51.502;10.800;2022-09-02T04:19:21;3.83;;;1.50;;
20138;SDS011;10230;51.502;10.800;2022-09-02T04:21:47;2.20;;;1.53;;
20138;SDS011;10230;51.502;10.800;2022-09-02T04:24:13;2.20;;;1.33;;
20138;SDS011;10230;51.502;10.800;2022-09-02T04:26:39;4.07;;;1.40;;
20138;SDS011;10230;51.502;10.800;2022-09-02T04:29:05;4.20;;;1.57;;
20138;SDS011;10230;51.502;10.800;2022-09-02T04:31:33;2.00;;;1.40;;
20138;SDS011;10230;51.502;10.800;2022-09-02T04:33:59;5.77;;;1.60;;
20138;SDS011;10230;51.502;10.800;2022-09-02T04:36:26;2.10;;;1.77;;
20138;SDS011;10230;51.502;10.800;2022-09-02T04:38:52;4.03;;;1.60;;
20138;SDS011;10230;51.502;10.800;2022-09-02T04:41:20;2.93;;;1.77;;
20138;SDS011;10230;51.502;10.800;2022-09-02T04:43:47;2.33;;;1.60;;
20138;SDS011;10230;51.502;10.800;2022-09-02T04:46:14;4.33;;;2.30;;
20138;SDS011;10230;51.502;10.800;2022-09-02T04:48:40;3.47;;;2.50;;
20138;SDS011;10230;51.502;10.800;2022-09-02T04:51:08;4.13;;;2.30;;
20138;SDS011;10230;51.502;10.800;2022-09-02T04:53:34;5.27;;;3.23;;
20138;SDS011;10230;51.502;10.800;2022-09-02T04:56:04;3.33;;;2.50;;
20138;SDS011;10230;51.502;10.800;2022-09-02T04:58:31;3.90;;;2.10;;
20138;SDS011;10230;51.502;10.800;2022-09-02T05:00:57;4.80;;;2.10;;
20138;SDS011;10230;51.502;10.800;2022-09-02T05:03:23;6.67;;;2.03;;
20138;SDS011;10230;51.502;10.800;2022-09-02T05:06:00;6.30;;;3.57;;
20138;SDS011;10230;51.502;10.800;2022-09-02T05:08:26;5.47;;;4.30;;
20138;SDS011;10230;51.502;10.800;2022-09-02T05:10:52;5.87;;;3.03;;
20138;SDS011;10230;51.502;10.800;2022-09-02T05:13:19;3.97;;;2.30;;
20138;SDS011;10230;51.502;10.800;2022-09-02T05:15:45;7.23;;;2.43;;
20138;SDS011;10230;51.502;10.800;2022-09-02T05:18:11;3.53;;;1.73;;
20138;SDS011;10230;51.502;10.800;2022-09-02T05:20:38;7.80;;;3.67;;
20138;SDS011;10230;51.502;10.800;2022-09-02T05:23:04;3.83;;;2.93;;
20138;SDS011;10230;51.502;10.800;2022-09-02T05:25:31;3.13;;;2.43;;
20138;SDS011;10230;51.502;10.800;2022-09-02T05:27:57;2.83;;;2.20;;
20138;SDS011;10230;51.502;10.800;2022-09-02T05:30:23;4.10;;;2.47;;
20138;SDS011;10230;51.502;10.800;2022-09-02T05:32:49;4.23;;;2.43;;
20138;SDS011;10230;51.502;10.800;2022-09-02T05:35:15;5.07;;;2.33;;
20138;SDS011;10230;51.502;10.800;2022-09-02T05:37:41;7.30;;;2.27;;
20138;SDS011;10230;51.502;10.800;2022-09-02T05:40:07;9.20;;;3.70;;
20138;SDS011;10230;51.502;10.800;2022-09-02T05:42:36;5.33;;;4.10;;
20138;SDS011;10230;51.502;10.800;2022-09-02T05:45:02;7.73;;;4.93;;
20138;SDS011;10230;51.502;10.800;2022-09-02T05:47:28;6.90;;;3.70;;
20138;SDS011;10230;51.502;10.800;2022-09-02T05:49:54;5.10;;;3.17;;
20138;SDS011;10230;51.502;10.800;2022-09-02T05:52:20;6.60;;;5.50;;
20138;SDS011;10230;51.502;10.800;2022-09-02T05:54:46;9.50;;;5.00;;
20138;SDS011;10230;51.502;10.800;2022-09-02T05:57:14;7.23;;;4.50;;
20138;SDS011;10230;51.502;10.800;2022-09-02T05:59:40;6.17;;;3.77;;
20138;SDS011;10230;51.502;10.800;2022-09-02T06:02:08;6.40;;;3.50;;
20138;SDS011;10230;51.502;10.800;2022-09-02T06:04:41;4.43;;;2.63;;
20138;SDS011;10230;51.502;10.800;2022-09-02T06:07:09;5.07;;;3.00;;
20138;SDS011;10230;51.502;10.800;2022-09-02T06:09:35;3.93;;;2.47;;
20138;SDS011;10230;51.502;10.800;2022-09-02T06:12:01;2.80;;;2.30;;
20138;SDS011;10230;51.502;10.800;2022-09-02T06:14:27;3.37;;;2.20;;
20138;SDS011;10230;51.502;10.800;2022-09-02T06:16:55;7.87;;;5.40;;
20138;SDS011;10230;51.502;10.800;2022-09-02T06:19:21;5.20;;;2.90;;
20138;SDS011;10230;51.502;10.800;2022-09-02T06:21:49;2.40;;;1.95;;
20138;SDS011;10230;51.502;10.800;2022-09-02T06:24:15;5.75;;;2.58;;
20138;SDS011;10230;51.502;10.800;2022-09-02T06:26:42;4.55;;;2.33;;
20138;SDS011;10230;51.502;10.800;2022-09-02T06:29:08;3.40;;;2.22;;
20138;SDS011;10230;51.502;10.800;2022-09-02T06:31:35;3.30;;;2.15;;
20138;SDS011;10230;51.502;10.800;2022-09-02T06:34:01;2.50;;;1.90;;
20138;SDS011;10230;51.502;10.800;2022-09-02T06:36:28;4.00;;;2.30;;
20138;SDS011;10230;51.502;10.800;2022-09-02T06:38:55;3.03;;;2.20;;
20138;SDS011;10230;51.502;10.800;2022-09-02T06:41:23;6.47;;;3.20;;
20138;SDS011;10230;51.502;10.800;2022-09-02T06:43:51;2.95;;;1.92;;
20138;SDS011;10230;51.502;10.800;2022-09-02T06:46:18;3.35;;;2.50;;
20138;SDS011;10230;51.502;10.800;2022-09-02T06:48:44;3.15;;;2.13;;
20138;SDS011;10230;51.502;10.800;2022-09-02T06:51:16;2.95;;;2.17;;
20138;SDS011;10230;51.502;10.800;2022-09-02T06:53:42;2.65;;;2.08;;
20138;SDS011;10230;51.502;10.800;2022-09-02T06:56:08;2.63;;;1.80;;
20138;SDS011;10230;51.502;10.800;2022-09-02T06:58:34;3.72;;;1.98;;
20138;SDS011;10230;51.502;10.800;2022-09-02T07:01:00;3.05;;;2.03;;
20138;SDS011;10230;51.502;10.800;2022-09-02T07:03:27;3.88;;;2.00;;
20138;SDS011;10230;51.502;10.800;2022-09-02T07:06:11;3.33;;;1.90;;
20138;SDS011;10230;51.502;10.800;2022-09-02T07:08:38;3.70;;;1.80;;
20138;SDS011;10230;51.502;10.800;2022-09-02T07:11:05;3.80;;;1.95;;
20138;SDS011;10230;51.502;10.800;2022-09-02T07:13:31;4.13;;;2.28;;
20138;SDS011;10230;51.502;10.800;2022-09-02T07:15:58;6.25;;;2.20;;
20138;SDS011;10230;51.502;10.800;2022-09-02T07:18:24;2.45;;;2.05;;
20138;SDS011;10230;51.502;10.800;2022-09-02T07:20:50;4.35;;;2.40;;
20138;SDS011;10230;51.502;10.800;2022-09-02T07:23:16;3.75;;;1.83;;
20138;SDS011;10230;51.502;10.800;2022-09-02T07:25:42;4.28;;;1.92;;
20138;SDS011;10230;51.502;10.800;2022-09-02T07:28:09;3.13;;;2.10;;
20138;SDS011;10230;51.502;10.800;2022-09-02T07:30:36;3.40;;;1.98;;
20138;SDS011;10230;51.502;10.800;2022-09-02T07:33:04;2.63;;;1.90;;
20138;SDS011;10230;51.502;10.800;2022-09-02T07:35:30;5.80;;;2.30;;
20138;SDS011;10230;51.502;10.800;2022-09-02T07:37:55;3.75;;;1.52;;
20138;SDS011;10230;51.502;10.800;2022-09-02T07:40:21;3.17;;;2.03;;
20138;SDS011;10230;51.502;10.800;2022-09-02T07:42:48;3.88;;;1.65;;
20138;SDS011;10230;51.502;10.800;2022-09-02T07:45:14;6.28;;;1.83;;
20138;SDS011;10230;51.502;10.800;2022-09-02T07:47:39;5.45;;;2.20;;
20138;SDS011;10230;51.502;10.800;2022-09-02T07:50:05;5.32;;;1.90;;
20138;SDS011;10230;51.502;10.800;2022-09-02T07:52:31;4.22;;;2.10;;
20138;SDS011;10230;51.502;10.800;2022-09-02T07:54:57;1.75;;;1.58;;
20138;SDS011;10230;51.502;10.800;2022-09-02T07:57:23;4.53;;;1.80;;
20138;SDS011;10230;51.502;10.800;2022-09-02T07:59:49;5.45;;;2.90;;
20138;SDS011;10230;51.502;10.800;2022-09-02T08:02:15;5.18;;;1.77;;
20138;SDS011;10230;51.502;10.800;2022-09-02T08:04:42;6.45;;;2.42;;
20138;SDS011;10230;51.502;10.800;2022-09-02T08:07:09;4.55;;;1.77;;
20138;SDS011;10230;51.502;10.800;2022-09-02T08:09:35;4.85;;;1.80;;
20138;SDS011;10230;51.502;10.800;2022-09-02T08:12:01;3.20;;;1.52;;
20138;SDS011;10230;51.502;10.800;2022-09-02T08:14:28;3.97;;;1.27;;
20138;SDS011;10230;51.502;10.800;2022-09-02T08:16:54;5.88;;;1.58;;
20138;SDS011;10230;51.502;10.800;2022-09-02T08:19:21;8.30;;;1.85;;
20138;SDS011;10230;51.502;10.800;2022-09-02T08:21:47;3.92;;;2.13;;
20138;SDS011;10230;51.502;10.800;2022-09-02T08:24:13;8.68;;;1.77;;
20138;SDS011;10230;51.502;10.800;2022-09-02T08:26:39;3.83;;;1.60;;
20138;SDS011;10230;51.502;10.800;2022-09-02T08:29:05;2.13;;;1.40;;
20138;SDS011;10230;51.502;10.800;2022-09-02T08:31:32;2.40;;;1.50;;
20138;SDS011;10230;51.502;10.800;2022-09-02T08:33:59;2.80;;;1.30;;
20138;SDS011;10230;51.502;10.800;2022-09-02T08:36:25;5.22;;;1.10;;
20138;SDS011;10230;51.502;10.800;2022-09-02T08:38:51;4.78;;;1.08;;
20138;SDS011;10230;51.502;10.800;2022-09-02T08:41:23;2.55;;;1.20;;
20138;SDS011;10230;51.502;10.800;2022-09-02T08:43:51;5.45;;;1.75;;
20138;SDS011;10230;51.502;10.800;2022-09-02T08:46:18;4.20;;;1.25;;
20138;SDS011;10230;51.502;10.800;2022-09-02T08:51:25;2.78;;;1.00;;
20138;SDS011;10230;51.502;10.800;2022-09-02T08:53:55;3.08;;;1.70;;
20138;SDS011;10230;51.502;10.800;2022-09-02T08:56:27;2.15;;;0.98;;
20138;SDS011;10230;51.502;10.800;2022-09-02T08:58:53;3.47;;;1.20;;
20138;SDS011;10230;51.502;10.800;2022-09-02T09:06:22;3.10;;;1.00;;
20138;SDS011;10230;51.502;10.800;2022-09-02T09:08:53;1.00;;;0.90;;
20138;SDS011;10230;51.502;10.800;2022-09-02T12:40:52;4.70;;;0.77;;
20138;SDS011;10230;51.502;10.800;2022-09-02T12:43:21;5.10;;;0.85;;
20138;SDS011;10230;51.502;10.800;2022-09-02T12:45:50;2.97;;;0.80;;
20138;SDS011;10230;51.502;10.800;2022-09-02T12:48:18;3.92;;;0.68;;
20138;SDS011;10230;51.502;10.800;2022-09-02T12:50:54;6.13;;;0.90;;
20138;SDS011;10230;51.502;10.800;2022-09-02T12:56:00;3.92;;;0.90;;
20138;SDS011;10230;51.502;10.800;2022-09-02T12:58:38;7.05;;;1.08;;
20138;SDS011;10230;51.502;10.800;2022-09-02T13:01:11;3.25;;;0.80;;
20138;SDS011;10230;51.502;10.800;2022-09-02T13:03:56;1.52;;;0.63;;
20138;SDS011;10230;51.502;10.800;2022-09-02T13:17:20;4.28;;;0.90;;
20138;SDS011;10230;51.502;10.800;2022-09-02T13:27:44;3.33;;;0.57;;
20138;SDS011;10230;51.502;10.800;2022-09-02T13:33:02;2.80;;;1.00;;
20138;SDS011;10230;51.502;10.800;2022-09-02T13:35:30;2.95;;;0.98;;
20138;SDS011;10230;51.502;10.800;2022-09-02T13:37:58;1.90;;;0.70;;
20138;SDS011;10230;51.502;10.800;2022-09-02T13:40:26;2.90;;;1.75;;
20138;SDS011;10230;51.502;10.800;2022-09-02T13:42:56;1.88;;;0.77;;
20138;SDS011;10230;51.502;10.800;2022-09-02T13:45:25;3.15;;;0.90;;
20138;SDS011;10230;51.502;10.800;2022-09-02T13:47:55;1.15;;;0.63;;
20138;SDS011;10230;51.502;10.800;2022-09-02T13:50:23;4.63;;;1.00;;
20138;SDS011;10230;51.502;10.800;2022-09-02T13:52:51;4.13;;;1.40;;
20138;SDS011;10230;51.502;10.800;2022-09-02T13:55:18;3.38;;;1.20;;
20138;SDS011;10230;51.502;10.800;2022-09-02T13:57:46;1.95;;;0.82;;
20138;SDS011;10230;51.502;10.800;2022-09-02T14:00:18;1.92;;;0.85;;
20138;SDS011;10230;51.502;10.800;2022-09-02T14:02:54;2.17;;;1.00;;
20138;SDS011;10230;51.502;10.800;2022-09-02T14:05:21;2.35;;;0.85;;
20138;SDS011;10230;51.502;10.800;2022-09-02T14:07:50;1.63;;;1.05;;
20138;SDS011;10230;51.502;10.800;2022-09-02T14:10:21;2.72;;;0.85;;
20138;SDS011;10230;51.502;10.800;2022-09-02T14:12:47;4.65;;;0.70;;
20138;SDS011;10230;51.502;10.800;2022-09-02T14:15:15;3.45;;;1.00;;
20138;SDS011;10230;51.502;10.800;2022-09-02T14:17:41;4.60;;;0.65;;
20138;SDS011;10230;51.502;10.800;2022-09-02T14:22:39;5.40;;;1.08;;
20138;SDS011;10230;51.502;10.800;2022-09-02T14:25:11;1.75;;;0.70;;
20138;SDS011;10230;51.502;10.800;2022-09-02T14:27:37;1.63;;;0.95;;
20138;SDS011;10230;51.502;10.800;2022-09-02T14:30:03;2.05;;;1.75;;
20138;SDS011;10230;51.502;10.800;2022-09-02T14:32:33;3.67;;;0.77;;
20138;SDS011;10230;51.502;10.800;2022-09-02T14:35:19;3.40;;;0.70;;
20138;SDS011;10230;51.502;10.800;2022-09-02T14:37:49;4.65;;;0.88;;
20138;SDS011;10230;51.502;10.800;2022-09-02T14:40:39;1.67;;;1.13;;
20138;SDS011;10230;51.502;10.800;2022-09-02T14:43:48;1.42;;;0.98;;
20138;SDS011;10230;51.502;10.800;2022-09-02T14:48:51;2.28;;;0.80;;
20138;SDS011;10230;51.502;10.800;2022-09-02T14:51:30;2.88;;;0.60;;
20138;SDS011;10230;51.502;10.800;2022-09-02T14:53:57;4.60;;;0.80;;
20138;SDS011;10230;51.502;10.800;2022-09-02T14:56:43;3.40;;;0.65;;
20138;SDS011;10230;51.502;10.800;2022-09-02T14:59:09;2.75;;;0.57;;
20138;SDS011;10230;51.502;10.800;2022-09-02T15:01:53;2.65;;;0.68;;
20138;SDS011;10230;51.502;10.800;2022-09-02T15:04:21;3.67;;;0.90;;
20138;SDS011;10230;51.502;10.800;2022-09-02T15:06:47;2.85;;;0.70;;
20138;SDS011;10230;51.502;10.800;2022-09-02T15:09:31;4.30;;;0.77;;
20138;SDS011;10230;51.502;10.800;2022-09-02T15:11:57;3.75;;;0.73;;
20138;SDS011;10230;51.502;10.800;2022-09-02T15:14:26;3.67;;;0.88;;
20138;SDS011;10230;51.502;10.800;2022-09-02T15:16:53;2.15;;;0.60;;
20138;SDS011;10230;51.502;10.800;2022-09-02T15:19:19;5.15;;;0.80;;
20138;SDS011;10230;51.502;10.800;2022-09-02T15:21:45;3.60;;;0.93;;
20138;SDS011;10230;51.502;10.800;2022-09-02T15:24:11;1.92;;;0.80;;
20138;SDS011;10230;51.502;10.800;2022-09-02T15:26:37;1.15;;;0.60;;
20138;SDS011;10230;51.502;10.800;2022-09-02T15:29:03;0.57;;;0.40;;
20138;SDS011;10230;51.502;10.800;2022-09-02T15:31:28;1.60;;;0.60;;
20138;SDS011;10230;51.502;10.800;2022-09-02T15:33:54;5.45;;;0.80;;
20138;SDS011;10230;51.502;10.800;2022-09-02T15:36:21;6.93;;;0.77;;
20138;SDS011;10230;51.502;10.800;2022-09-02T15:38:48;5.55;;;0.75;;
20138;SDS011;10230;51.502;10.800;2022-09-02T15:44:05;4.68;;;1.05;;
20138;SDS011;10230;51.502;10.800;2022-09-02T15:46:44;6.90;;;0.52;;
20138;SDS011;10230;51.502;10.800;2022-09-02T15:49:12;2.45;;;0.60;;
20138;SDS011;10230;51.502;10.800;2022-09-02T15:51:42;1.40;;;0.63;;
20138;SDS011;10230;51.502;10.800;2022-09-02T15:54:09;2.97;;;0.60;;
20138;SDS011;10230;51.502;10.800;2022-09-02T15:56:36;1.50;;;0.80;;
20138;SDS011;10230;51.502;10.800;2022-09-02T15:59:08;4.70;;;1.67;;
20138;SDS011;10230;51.502;10.800;2022-09-02T16:01:41;1.77;;;0.65;;
20138;SDS011;10230;51.502;10.800;2022-09-02T16:04:09;2.25;;;0.68;;
20138;SDS011;10230;51.502;10.800;2022-09-02T16:06:37;3.65;;;1.00;;
20138;SDS011;10230;51.502;10.800;2022-09-02T16:09:04;3.30;;;1.00;;
20138;SDS011;10230;51.502;10.800;2022-09-02T16:11:30;2.65;;;0.55;;
20138;SDS011;10230;51.502;10.800;2022-09-02T16:13:56;2.50;;;0.50;;
20138;SDS011;10230;51.502;10.800;2022-09-02T16:16:44;1.90;;;1.20;;
20138;SDS011;10230;51.502;10.800;2022-09-02T16:19:10;2.25;;;0.60;;
20138;SDS011;10230;51.502;10.800;2022-09-02T16:21:36;2.03;;;0.80;;
20138;SDS011;10230;51.502;10.800;2022-09-02T16:24:03;4.88;;;0.60;;
20138;SDS011;10230;51.502;10.800;2022-09-02T16:26:31;2.17;;;0.65;;
20138;SDS011;10230;51.502;10.800;2022-09-02T16:29:02;2.08;;;0.60;;
20138;SDS011;10230;51.502;10.800;2022-09-02T16:31:30;1.55;;;0.60;;
20138;SDS011;10230;51.502;10.800;2022-09-02T16:36:24;2.78;;;0.60;;
20138;SDS011;10230;51.502;10.800;2022-09-02T16:38:51;2.83;;;0.70;;
20138;SDS011;10230;51.502;10.800;2022-09-02T16:41:21;4.15;;;0.85;;
20138;SDS011;10230;51.502;10.800;2022-09-02T16:43:51;1.80;;;1.40;;
20138;SDS011;10230;51.502;10.800;2022-09-02T16:46:18;1.50;;;1.10;;
20138;SDS011;10230;51.502;10.800;2022-09-02T16:48:44;2.13;;;1.08;;
20138;SDS011;10230;51.502;10.800;2022-09-02T16:51:10;4.28;;;0.55;;
20138;SDS011;10230;51.502;10.800;2022-09-02T16:53:35;7.43;;;1.02;;
20138;SDS011;10230;51.502;10.800;2022-09-02T16:56:01;2.50;;;0.57;;
20138;SDS011;10230;51.502;10.800;2022-09-02T16:58:28;2.67;;;0.77;;
20138;SDS011;10230;51.502;10.800;2022-09-02T17:00:54;1.33;;;0.45;;
20138;SDS011;10230;51.502;10.800;2022-09-02T17:03:21;2.47;;;0.75;;
20138;SDS011;10230;51.502;10.800;2022-09-02T17:05:46;1.58;;;0.73;;
20138;SDS011;10230;51.502;10.800;2022-09-02T17:08:13;2.38;;;0.73;;
20138;SDS011;10230;51.502;10.800;2022-09-02T17:10:39;3.97;;;0.80;;
20138;SDS011;10230;51.502;10.800;2022-09-02T17:13:05;1.73;;;0.98;;
20138;SDS011;10230;51.502;10.800;2022-09-02T17:15:31;2.78;;;0.95;;
20138;SDS011;10230;51.502;10.800;2022-09-02T17:17:57;3.30;;;0.50;;
20138;SDS011;10230;51.502;10.800;2022-09-02T17:20:23;2.92;;;1.00;;
20138;SDS011;10230;51.502;10.800;2022-09-02T17:22:49;4.97;;;1.40;;
20138;SDS011;10230;51.502;10.800;2022-09-02T17:25:16;3.97;;;2.25;;
20138;SDS011;10230;51.502;10.800;2022-09-02T17:27:42;5.40;;;2.30;;
20138;SDS011;10230;51.502;10.800;2022-09-02T17:30:09;2.40;;;2.20;;
20138;SDS011;10230;51.502;10.800;2022-09-02T17:32:36;5.35;;;3.53;;
20138;SDS011;10230;51.502;10.800;2022-09-02T17:35:02;5.43;;;2.85;;
20138;SDS011;10230;51.502;10.800;2022-09-02T17:37:28;4.45;;;2.92;;
20138;SDS011;10230;51.502;10.800;2022-09-02T17:39:56;6.28;;;2.40;;
20138;SDS011;10230;51.502;10.800;2022-09-02T17:42:22;4.40;;;2.00;;
20138;SDS011;10230;51.502;10.800;2022-09-02T17:44:47;4.13;;;1.35;;
20138;SDS011;10230;51.502;10.800;2022-09-02T17:47:14;2.90;;;1.40;;
20138;SDS011;10230;51.502;10.800;2022-09-02T17:49:42;1.80;;;1.00;;
20138;SDS011;10230;51.502;10.800;2022-09-02T17:52:12;4.18;;;1.10;;
20138;SDS011;10230;51.502;10.800;2022-09-02T17:54:38;5.05;;;1.83;;
20138;SDS011;10230;51.502;10.800;2022-09-02T18:10:12;1.90;;;1.10;;
20138;SDS011;10230;51.502;10.800;2022-09-02T18:12:38;2.08;;;0.95;;
20138;SDS011;10230;51.502;10.800;2022-09-02T18:15:05;1.20;;;0.55;;
20138;SDS011;10230;51.502;10.800;2022-09-02T18:17:35;2.30;;;0.80;;
20138;SDS011;10230;51.502;10.800;2022-09-02T18:20:12;3.63;;;1.27;;
20138;SDS011;10230;51.502;10.800;2022-09-02T18:22:45;4.10;;;1.00;;
20138;SDS011;10230;51.502;10.800;2022-09-02T18:25:28;3.40;;;0.80;;
20138;SDS011;10230;51.502;10.800;2022-09-02T18:28:16;1.42;;;0.68;;
20138;SDS011;10230;51.502;10.800;2022-09-02T18:46:02;3.00;;;0.70;;
20138;SDS011;10230;51.502;10.800;2022-09-02T18:48:36;1.95;;;0.70;;
20138;SDS011;10230;51.502;10.800;2022-09-02T18:51:06;5.53;;;1.30;;
20138;SDS011;10230;51.502;10.800;2022-09-02T18:53:35;3.45;;;0.95;;
20138;SDS011;10230;51.502;10.800;2022-09-02T18:56:05;3.28;;;1.10;;
20138;SDS011;10230;51.502;10.800;2022-09-02T18:58:38;2.78;;;0.88;;
20138;SDS011;10230;51.502;10.800;2022-09-02T19:01:21;4.05;;;1.25;;
20138;SDS011;10230;51.502;10.800;2022-09-02T19:03:48;2.33;;;1.55;;
20138;SDS011;10230;51.502;10.800;2022-09-02T19:06:18;3.03;;;1.15;;
20138;SDS011;10230;51.502;10.800;2022-09-02T19:08:45;4.03;;;1.10;;
20138;SDS011;10230;51.502;10.800;2022-09-02T19:11:12;4.78;;;1.33;;
20138;SDS011;10230;51.502;10.800;2022-09-02T19:13:46;3.85;;;1.00;;
20138;SDS011;10230;51.502;10.800;2022-09-02T19:16:26;4.85;;;1.00;;